Time;durP1;ratioP1;P1;durP2;ratioP2;P2;SDS_P1;SDS_P2;PMS_P1;PMS_P2;Temp;Humidity;BMP_temperature;BMP_pressure;BME280_temperature;BME280_humidity;BME280_pressure;Samples;Min_cycle;Max_cycle;Signal;HPM_P1;HPM_P2
2022/08/18 00:04:55;;;;;;;1999.90;999.90;;;21.50;99.90;;;;;;6748788;88;20174;-79
2022/08/18 00:15:00;;;;;;;1999.90;999.90;;;21.40;99.90;;;;;;6749557;88;20212;-78
2022/08/18 00:25:01;;;;;;;1999.90;999.90;;;21.20;99.90;;;;;;6738935;88;20701;-79
2022/08/18 00:35:15;;;;;;;1999.90;999.90;;;20.90;99.90;;;;;;6736423;88;20189;-79
2022/08/18 00:45:19;;;;;;;1999.90;999.90;;;20.70;99.90;;;;;;6740985;88;20516;-79
2022/08/18 00:55:21;;;;;;;1999.90;999.90;;;20.30;99.90;;;;;;6759946;88;20177;-79
2022/08/18 01:05:36;;;;;;;1999.90;999.90;;;20.20;99.90;;;;;;6757421;88;20201;-79
2022/08/18 01:15:37;;;;;;;1999.90;999.90;;;20.20;99.90;;;;;;6752256;88;20724;-79
2022/08/18 01:36:16;;;;;;;1999.90;999.90;;;20.00;99.90;;;;;;6773678;88;20195;-79
2022/08/18 01:46:20;;;;;;;1999.90;999.90;;;20.20;99.90;;;;;;6752562;87;20214;-79
2022/08/18 01:56:21;;;;;;;1999.90;999.90;;;20.10;99.90;;;;;;6764209;88;20276;-79
2022/08/18 02:06:22;;;;;;;1999.90;999.90;;;19.80;99.90;;;;;;6763482;88;20243;-79
2022/08/18 02:16:23;;;;;;;1999.90;999.90;;;19.60;99.90;;;;;;6761497;88;20198;-80
2022/08/18 02:26:24;;;;;;;1999.90;999.90;;;19.40;99.90;;;;;;6764466;88;20223;-79
2022/08/18 02:36:24;;;;;;;1999.90;999.90;;;19.50;99.90;;;;;;6758909;88;20706;-79
2022/08/18 02:46:26;;;;;;;1999.90;999.90;;;19.40;99.90;;;;;;6759641;87;20174;-79
2022/08/18 02:56:29;;;;;;;1999.90;999.90;;;19.40;99.90;;;;;;6745938;88;20186;-79
2022/08/18 03:06:30;;;;;;;1999.90;999.90;;;19.30;99.90;;;;;;6729310;88;20188;-79
2022/08/18 03:16:31;;;;;;;1999.90;999.90;;;19.40;99.90;;;;;;6746103;88;20719;-79
2022/08/18 03:26:33;;;;;;;1999.90;999.90;;;19.30;99.90;;;;;;6745707;88;20794;-79
2022/08/18 03:36:35;;;;;;;1999.90;999.90;;;19.20;99.90;;;;;;6751906;88;20260;-79
2022/08/18 03:46:36;;;;;;;1999.90;999.90;;;19.30;99.90;;;;;;6747412;88;20258;-79
2022/08/18 03:56:38;;;;;;;1999.90;999.90;;;19.30;99.90;;;;;;6755623;88;20293;-79
2022/08/18 04:06:48;;;;;;;1999.90;999.90;;;19.40;99.90;;;;;;6761202;88;20185;-79
2022/08/18 04:16:49;;;;;;;1999.90;999.90;;;19.40;99.90;;;;;;6763339;88;20212;-79
2022/08/18 04:26:50;;;;;;;1999.90;999.90;;;19.30;99.90;;;;;;6758508;88;20805;-80
2022/08/18 04:36:52;;;;;;;1999.90;999.90;;;19.40;99.90;;;;;;6766516;88;20176;-79
2022/08/18 04:46:53;;;;;;;1999.90;999.90;;;19.20;99.90;;;;;;6758435;88;20210;-79
2022/08/18 04:56:54;;;;;;;1999.90;999.90;;;19.40;99.90;;;;;;6753105;88;20259;-79
2022/08/18 05:06:55;;;;;;;1999.90;999.90;;;19.50;99.90;;;;;;6764720;88;20356;-78
2022/08/18 05:17:00;;;;;;;1999.90;999.90;;;19.70;99.90;;;;;;6752017;88;20200;-79
2022/08/18 05:27:02;;;;;;;1999.90;999.90;;;19.70;99.90;;;;;;6756152;87;20184;-78
2022/08/18 05:37:24;;;;;;;1999.90;999.90;;;19.70;99.90;;;;;;6754647;88;20230;-78
2022/08/18 05:47:29;;;;;;;1999.90;999.90;;;19.80;99.90;;;;;;6753458;88;20199;-78
2022/08/18 05:57:38;;;;;;;1999.90;999.90;;;19.80;99.90;;;;;;6744014;88;20250;-78
2022/08/18 06:07:49;;;;;;;1999.90;999.90;;;19.90;99.90;;;;;;6755296;88;20686;-79
2022/08/18 06:18:30;;;;;;;1999.90;999.90;;;19.90;99.90;;;;;;6751964;88;20185;-78
2022/08/18 06:28:46;;;;;;;1999.90;999.90;;;20.00;99.90;;;;;;6752184;88;20308;-79
2022/08/18 06:39:04;;;;;;;1999.90;999.90;;;19.90;99.90;;;;;;6757031;88;20176;-78
2022/08/18 06:49:09;;;;;;;1999.90;999.90;;;19.90;99.90;;;;;;6757774;88;20253;-78
2022/08/18 06:59:35;;;;;;;1999.90;999.90;;;19.80;99.90;;;;;;6760791;88;20269;-79
2022/08/18 07:09:35;;;;;;;1999.90;999.90;;;19.70;99.90;;;;;;6742224;88;20311;-79
2022/08/18 07:19:36;;;;;;;1999.90;999.90;;;19.50;99.90;;;;;;6743361;88;20192;-79
2022/08/18 07:29:57;;;;;;;1999.90;999.90;;;19.70;99.90;;;;;;6757189;88;20298;-78
2022/08/18 07:40:24;;;;;;;1999.90;999.90;;;19.70;99.90;;;;;;6755941;88;20666;-78
2022/08/18 07:50:26;;;;;;;1999.90;999.90;;;19.60;99.90;;;;;;6748720;88;20768;-79
2022/08/18 08:00:49;;;;;;;1999.90;999.90;;;19.40;99.90;;;;;;6741225;88;20725;-79
2022/08/18 08:11:10;;;;;;;1999.90;999.90;;;19.50;99.90;;;;;;6738128;88;20211;-79
2022/08/18 08:21:16;;;;;;;1999.90;999.90;;;19.70;99.90;;;;;;6758334;88;20213;-79
2022/08/18 08:31:58;;;;;;;1999.90;999.90;;;19.80;99.90;;;;;;6762758;88;20189;-79
2022/08/18 08:42:08;;;;;;;1999.90;999.90;;;19.90;99.90;;;;;;6711282;88;20223;-79
2022/08/18 08:52:31;;;;;;;1999.90;999.90;;;20.30;99.90;;;;;;6749183;88;20687;-79
2022/08/18 09:03:09;;;;;;;1999.90;999.90;;;20.80;99.90;;;;;;6752943;88;20232;-79
2022/08/18 09:13:31;;;;;;;1999.90;999.90;;;20.90;99.90;;;;;;6750279;88;20290;-79
2022/08/18 09:23:39;;;;;;;1999.90;999.90;;;20.90;99.90;;;;;;6757776;88;20267;-79
2022/08/18 09:33:40;;;;;;;1999.90;999.90;;;21.20;99.90;;;;;;6754129;88;20200;-79
2022/08/18 09:44:09;;;;;;;1999.90;999.90;;;21.70;99.90;;;;;;6747261;88;20617;-79
2022/08/18 09:54:13;;;;;;;1999.90;999.90;;;21.70;99.90;;;;;;6748057;88;20283;-79
2022/08/18 10:04:13;;;;;;;1999.90;999.90;;;21.40;99.90;;;;;;6753617;88;20184;-80
2022/08/18 10:14:59;;;;;;;1999.90;999.90;;;21.20;99.90;;;;;;6755085;88;20201;-79
2022/08/18 10:25:00;;;;;;;1999.90;999.90;;;21.30;99.90;;;;;;6751876;88;20921;-80
2022/08/18 10:35:02;;;;;;;1999.90;999.90;;;21.70;99.90;;;;;;6744066;88;20205;-79
2022/08/18 10:45:15;;;;;;;1999.90;999.90;;;21.90;99.90;;;;;;6744954;88;20194;-83
2022/08/18 10:55:37;;;;;;;1999.90;999.90;;;22.80;99.90;;;;;;6752471;88;20212;-80
2022/08/18 11:05:38;;;;;;;1999.90;999.90;;;23.40;99.90;;;;;;6750484;88;20205;-80
2022/08/18 11:16:13;;;;;;;1999.90;999.90;;;23.60;99.90;;;;;;6745864;88;20210;-80
2022/08/18 11:26:16;;;;;;;1999.90;999.90;;;23.80;99.90;;;;;;6746456;88;20188;-80
2022/08/18 11:36:31;;;;;;;;;;;23.10;99.90;;;;;;6745668;88;20931;-81
2022/08/18 11:46:40;;;;;;;1999.90;999.90;;;24.40;99.90;;;;;;6756369;88;20123;-81
2022/08/18 11:56:41;;;;;;;1999.90;999.90;;;24.90;99.90;;;;;;6769874;88;20197;-82
2022/08/18 12:06:59;;;;;;;1999.90;999.90;;;25.60;99.90;;;;;;6768001;87;20208;-82
2022/08/18 12:17:00;;;;;;;1999.90;999.90;;;26.20;99.90;;;;;;6773095;88;20209;-82
2022/08/18 12:27:00;;;;;;;1999.90;999.90;;;25.70;99.90;;;;;;6740607;88;20229;-82
2022/08/18 12:37:01;;;;;;;1999.90;999.90;;;25.40;99.90;;;;;;6773015;88;20304;-81
2022/08/18 12:47:11;;;;;;;1999.90;999.90;;;26.00;99.90;;;;;;6752960;88;20392;-82
2022/08/18 12:57:22;;;;;;;1999.90;999.90;;;27.10;99.90;;;;;;6745216;88;20165;-81
2022/08/18 13:07:22;;;;;;;1999.90;999.90;;;27.50;99.90;;;;;;6747409;88;20182;-81
2022/08/18 13:17:23;;;;;;;1999.90;999.90;;;26.90;99.90;;;;;;6750884;88;20186;-81
2022/08/18 13:27:24;;;;;;;1999.90;999.90;;;26.80;99.90;;;;;;6757939;88;20204;-81
2022/08/18 13:37:27;;;;;;;1999.90;999.90;;;27.70;99.90;;;;;;6753279;88;20193;-80
2022/08/18 13:47:28;;;;;;;1999.90;999.90;;;28.00;99.90;;;;;;6751752;88;20201;-81
2022/08/18 13:57:30;;;;;;;1999.90;999.90;;;28.50;99.90;;;;;;6752428;88;20736;-81
2022/08/18 14:07:31;;;;;;;1999.90;999.90;;;28.50;99.50;;;;;;6748149;88;20189;-80
2022/08/18 14:17:32;;;;;;;1999.90;999.90;;;28.50;99.70;;;;;;6751308;88;20768;-81
2022/08/18 14:27:35;;;;;;;1999.90;999.90;;;28.10;99.30;;;;;;6754447;88;20244;-79
2022/08/18 14:37:36;;;;;;;1999.90;999.90;;;28.60;98.80;;;;;;6761811;88;20244;-80
2022/08/18 14:47:36;;;;;;;1999.90;999.90;;;28.10;99.00;;;;;;6767579;87;20151;-81
2022/08/18 14:57:38;;;;;;;1999.90;999.90;;;28.40;98.90;;;;;;6784042;87;20296;-81
2022/08/18 15:07:39;;;;;;;1999.90;999.90;;;28.30;98.70;;;;;;6762497;88;20177;-81
2022/08/18 15:17:39;;;;;;;1999.90;999.90;;;27.40;99.30;;;;;;6762686;88;20478;-82
2022/08/18 15:27:40;;;;;;;1999.90;999.90;;;27.30;99.40;;;;;;6771560;87;20703;-78
2022/08/18 15:37:43;;;;;;;1999.90;999.90;;;27.50;99.20;;;;;;6758792;88;20275;-78
2022/08/18 15:47:44;;;;;;;1999.90;999.90;;;27.60;99.20;;;;;;6751198;88;20189;-79
2022/08/18 15:57:45;;;;;;;1999.90;999.90;;;28.00;98.10;;;;;;6765714;87;20226;-80
2022/08/18 16:07:46;;;;;;;1999.90;999.90;;;28.10;97.10;;;;;;6769455;87;20192;-79
2022/08/18 16:17:48;;;;;;;1999.90;999.90;;;28.00;97.10;;;;;;6762283;88;20305;-79
2022/08/18 16:27:49;;;;;;;1999.90;999.90;;;27.40;97.30;;;;;;6758283;88;20191;-80
2022/08/18 16:37:49;;;;;;;1999.90;999.90;;;27.40;97.40;;;;;;6765514;88;20189;-79
2022/08/18 16:47:50;;;;;;;1999.90;999.90;;;27.30;97.00;;;;;;6761215;88;20189;-78
2022/08/18 17:08:10;;;;;;;1999.90;999.90;;;27.40;97.40;;;;;;6755461;88;20193;-80
2022/08/18 17:18:10;;;;;;;1999.90;999.90;;;27.30;97.40;;;;;;6755836;88;20220;-78
2022/08/18 17:28:17;;;;;;;1999.90;999.90;;;27.10;97.40;;;;;;6752037;88;20185;-78
2022/08/18 17:38:31;;;;;;;1999.90;999.90;;;27.10;97.30;;;;;;6746040;88;20186;-78
2022/08/18 17:48:46;;;;;;;1999.90;999.90;;;26.90;97.50;;;;;;6751657;88;20193;-77
2022/08/18 17:58:55;;;;;;;1999.90;999.90;;;26.50;97.70;;;;;;6753657;88;20207;-79
2022/08/18 18:09:00;;;;;;;1999.90;999.90;;;26.10;98.20;;;;;;6766323;88;20235;-79
2022/08/18 18:19:06;;;;;;;1999.90;999.90;;;25.80;98.50;;;;;;6763233;88;20180;-78
2022/08/18 18:29:26;;;;;;;1999.90;999.90;;;25.70;98.90;;;;;;6751313;88;20721;-78
2022/08/18 18:39:30;;;;;;;1999.90;999.90;;;25.40;99.10;;;;;;6754531;88;20211;-78
2022/08/18 18:49:53;;;;;;;1999.90;999.90;;;25.20;99.50;;;;;;6747071;88;20248;-79
2022/08/18 19:00:15;;;;;;;1999.90;999.90;;;25.00;99.90;;;;;;6742940;88;20251;-79
2022/08/18 19:10:42;;;;;;;1999.90;999.90;;;24.50;99.90;;;;;;6742026;88;20332;-81
2022/08/18 19:20:47;;;;;;;1999.90;999.90;;;24.40;99.90;;;;;;6743931;88;20196;-80
2022/08/18 19:30:52;;;;;;;1999.90;999.90;;;24.20;99.90;;;;;;6742008;88;20178;-78
2022/08/18 19:41:14;;;;;;;1999.90;999.90;;;24.10;99.90;;;;;;6757828;88;20255;-79
2022/08/18 19:51:37;;;;;;;1999.90;999.90;;;23.80;99.90;;;;;;6744125;88;20210;-80
2022/08/18 20:01:51;;;;;;;1999.90;999.90;;;23.60;99.90;;;;;;6747748;88;20988;-80
2022/08/18 20:12:07;;;;;;;1999.90;999.90;;;23.30;99.90;;;;;;6748980;88;20773;-80
2022/08/18 20:22:29;;;;;;;1999.90;999.90;;;23.00;99.90;;;;;;6754203;88;20301;-78
2022/08/18 20:32:34;;;;;;;1999.90;999.90;;;22.90;99.90;;;;;;6749762;88;20226;-80
2022/08/18 20:42:34;;;;;;;1999.90;999.90;;;22.70;99.90;;;;;;6759921;88;20240;-81
2022/08/18 20:52:59;;;;;;;1999.90;999.90;;;22.60;99.90;;;;;;6761485;88;20239;-80
2022/08/18 21:03:05;;;;;;;1999.90;999.90;;;22.40;99.90;;;;;;6746681;88;20199;-79
2022/08/18 21:13:07;;;;;;;1999.90;999.90;;;22.20;99.90;;;;;;6745973;88;20244;-79
2022/08/18 21:23:11;;;;;;;1999.90;999.90;;;22.10;99.90;;;;;;6745533;88;20206;-79
2022/08/18 21:33:19;;;;;;;1999.90;999.90;;;22.00;99.90;;;;;;6748561;88;20207;-78
2022/08/18 21:43:43;;;;;;;1999.90;999.90;;;21.90;99.90;;;;;;6755673;88;20195;-80
2022/08/18 21:53:44;;;;;;;1999.90;999.90;;;21.80;99.90;;;;;;6759837;88;20254;-80
2022/08/18 22:04:01;;;;;;;1999.90;999.90;;;21.70;99.90;;;;;;6747559;88;20187;-78
2022/08/18 22:14:42;;;;;;;1999.90;999.90;;;21.70;99.90;;;;;;6752703;88;20292;-80
2022/08/18 22:24:54;;;;;;;1999.90;999.90;;;21.50;99.90;;;;;;6746709;88;20189;-80
2022/08/18 22:34:55;;;;;;;1999.90;999.90;;;21.40;99.90;;;;;;6749763;88;20261;-80
2022/08/18 22:44:55;;;;;;;1999.90;999.90;;;21.30;99.90;;;;;;6749864;88;20228;-79
2022/08/18 22:54:58;;;;;;;1999.90;999.90;;;21.20;99.90;;;;;;6750843;88;20513;-80
2022/08/18 23:04:59;;;;;;;1999.90;999.90;;;21.00;99.90;;;;;;6750350;88;20201;-80
2022/08/18 23:15:08;;;;;;;1999.90;999.90;;;21.00;99.90;;;;;;6746110;88;20279;-81
2022/08/18 23:25:09;;;;;;;1999.90;999.90;;;21.00;99.90;;;;;;6748098;88;20182;-81
2022/08/18 23:35:09;;;;;;;1999.90;999.90;;;21.00;99.90;;;;;;6751020;88;20198;-80
2022/08/18 23:45:10;;;;;;;1999.90;999.90;;;20.80;99.90;;;;;;6750163;88;20204;-79
2022/08/18 23:55:13;;;;;;;1999.90;999.90;;;20.80;99.90;;;;;;6752038;88;20202;-81
